X  SluitMETAR luchtvaart weer gegevens      EHGG Eelde

Temperatuur

4°C Temperatuur

1°C Dauwpunt

81% Vochtigheid



Wind

16 KM/U

10 MPH

 4 M/S

 9 KTS



200°
Zuid Zuid
West
Huidig weer

Helder Helder
Luchtdruk 992.92 (hPa) - 29.32 (in)
Zicht 6.2 (mi) - 10 (km)
Vliegveld
Vliegveld code EHGG

Locatie Eelde 50 (km)

Metar:
EHGG 142355Z AUTO 20009KT 170V230 9999 NSC 04/01 Q0993

Tijd: 15-12-2019 00:55